PWSweather.com
Personal Weather Stations
Station Observations
PICKERING
North Yorkshire, PickeringGB

North YorkshirePickeringGB

Lat: 54.2494, Lon: -0.7725

Elevation: 192

Station Type: Oregon Scientific WMR100

http://www.yorkshirewalker.co.uk/weather/

High Low Average
Temperature 44.2°F6.8°C 36.1°F2.3°C 40.0°F4.4°C
Dew Point 39.2°F4.0°C 32.0°F0.0°C 36.0°F2.2°C
Winds 9.8 mph 15.8 kmh 0.1 mph 0.2 kmh 4.0 mph SW6.4 kmh SW
Wind Gusts 15.2 mph24.5 kmh 0.9 mph1.4 kmh 7.0 mph11.3 kmh
Humidity 89% 76% 84%
Pressure 29.06 in984.1 mb 28.47 in964.1 mb -
Precipitation 1.51 in38.4 mm - -
Hour Temp Dew Point Humidity Winds Wind Gusts Pressure Precip Precip Rate Daily Precip Total
12:00 AM 39.6°F4.2°C 37.4°F3.0°C 87% 2.1 mph SE3.4 kmh SE 3.8 mph6.1 kmh 29.06 in984.1 mb 0.00 in0.0 mm 0.00 in0.0 mm 0.00 in0.0 mm
12:05 AM 39.7°F4.3°C 37.4°F3.0°C 87% 1.2 mph SSE1.9 kmh SSE 3.4 mph5.5 kmh 29.06 in984.1 mb 0.00 in0.0 mm 0.00 in0.0 mm 0.00 in0.0 mm
12:10 AM 39.7°F4.3°C 37.4°F3.0°C 87% 1.2 mph SE1.9 kmh SE 4.0 mph6.4 kmh 29.06 in984.1 mb 0.00 in0.0 mm 0.00 in0.0 mm 0.00 in0.0 mm
12:15 AM 39.7°F4.3°C 37.4°F3.0°C 87% 1.8 mph ESE2.9 kmh ESE 4.0 mph6.4 kmh 29.06 in984.1 mb 0.00 in0.0 mm 0.00 in0.0 mm 0.00 in0.0 mm
12:20 AM 39.9°F4.4°C 37.4°F3.0°C 87% 2.0 mph ESE3.2 kmh ESE 4.0 mph6.4 kmh 29.03 in983.1 mb 0.00 in0.0 mm 0.00 in0.0 mm 0.00 in0.0 mm
12:25 AM 39.9°F4.4°C 37.4°F3.0°C 87% 1.4 mph ESE2.3 kmh ESE 3.1 mph5.0 kmh 29.03 in983.1 mb 0.00 in0.0 mm 0.00 in0.0 mm 0.00 in0.0 mm
12:30 AM 39.9°F4.4°C 37.4°F3.0°C 87% 1.1 mph SE1.8 kmh SE 2.7 mph4.3 kmh 29.03 in983.1 mb 0.00 in0.0 mm 0.00 in0.0 mm 0.00 in0.0 mm
12:35 AM 39.9°F4.4°C 37.4°F3.0°C 87% 1.1 mph ESE1.8 kmh ESE 2.5 mph4.0 kmh 28.97 in981.0 mb 0.00 in0.0 mm 0.00 in0.0 mm 0.00 in0.0 mm
12:40 AM 39.9°F4.4°C 37.4°F3.0°C 87% 1.0 mph ESE1.6 kmh ESE 2.7 mph4.3 kmh 28.97 in981.0 mb 0.00 in0.0 mm 0.00 in0.0 mm 0.00 in0.0 mm
12:45 AM 39.9°F4.4°C 37.4°F3.0°C 87% 1.7 mph E2.7 kmh E 3.6 mph5.8 kmh 28.97 in981.0 mb 0.00 in0.0 mm 0.00 in0.0 mm 0.00 in0.0 mm
12:50 AM 40.1°F4.5°C 37.4°F3.0°C 87% 1.9 mph ESE3.1 kmh ESE 3.6 mph5.8 kmh 28.97 in981.0 mb 0.00 in0.0 mm 0.00 in0.0 mm 0.00 in0.0 mm
12:55 AM 40.1°F4.5°C 37.4°F3.0°C 87% 1.6 mph SE2.6 kmh SE 4.0 mph6.4 kmh 28.97 in981.0 mb 0.00 in0.0 mm 0.00 in0.0 mm 0.00 in0.0 mm
01:00 AM 40.3°F4.6°C 37.4°F3.0°C 87% 2.5 mph SE4.0 kmh SE 6.5 mph10.5 kmh 28.97 in981.0 mb 0.00 in0.0 mm 0.00 in0.0 mm 0.00 in0.0 mm
01:05 AM 40.3°F4.6°C 37.4°F3.0°C 87% 2.8 mph SE4.5 kmh SE 6.5 mph10.5 kmh 28.97 in981.0 mb 0.00 in0.0 mm 0.00 in0.0 mm 0.00 in0.0 mm
01:10 AM 40.5°F4.7°C 37.4°F3.0°C 87% 2.5 mph SE4.0 kmh SE 4.9 mph7.9 kmh 28.97 in981.0 mb 0.00 in0.0 mm 0.00 in0.0 mm 0.00 in0.0 mm
01:15 AM 40.5°F4.7°C 37.4°F3.0°C 87% 1.9 mph ESE3.1 kmh ESE 4.9 mph7.9 kmh 28.97 in981.0 mb 0.00 in0.0 mm 0.00 in0.0 mm 0.00 in0.0 mm
01:20 AM 40.5°F4.7°C 37.4°F3.0°C 87% 1.8 mph E2.9 kmh E 3.8 mph6.1 kmh 28.97 in981.0 mb 0.00 in0.0 mm 0.00 in0.0 mm 0.00 in0.0 mm
01:25 AM 40.5°F4.7°C 37.4°F3.0°C 87% 2.3 mph ESE3.7 kmh ESE 6.0 mph9.7 kmh 28.97 in981.0 mb 0.00 in0.0 mm 0.00 in0.0 mm 0.00 in0.0 mm
01:30 AM 40.5°F4.7°C 37.4°F3.0°C 87% 2.9 mph E4.7 kmh E 7.2 mph11.6 kmh 28.97 in981.0 mb 0.00 in0.0 mm 0.00 in0.0 mm 0.00 in0.0 mm
01:35 AM 40.3°F4.6°C 37.4°F3.0°C 87% 3.1 mph E5.0 kmh E 7.2 mph11.6 kmh 28.94 in980.0 mb 0.00 in0.0 mm 0.00 in0.0 mm 0.00 in0.0 mm
01:40 AM 40.3°F4.6°C 37.4°F3.0°C 87% 3.2 mph E5.1 kmh E 7.2 mph11.6 kmh 28.94 in980.0 mb 0.00 in0.0 mm 0.00 in0.0 mm 0.00 in0.0 mm
01:45 AM 40.3°F4.6°C 37.4°F3.0°C 87% 3.0 mph E4.8 kmh E 7.4 mph11.9 kmh 28.94 in980.0 mb 0.00 in0.0 mm 0.00 in0.0 mm 0.00 in0.0 mm
01:50 AM 40.3°F4.6°C 37.4°F3.0°C 87% 3.0 mph E4.8 kmh E 7.4 mph11.9 kmh 28.91 in979.0 mb 0.13 in3.3 mm 1.56 in39.6 mm 0.13 in3.3 mm
01:55 AM 40.3°F4.6°C 37.4°F3.0°C 87% 3.2 mph E5.1 kmh E 5.8 mph9.3 kmh 28.91 in979.0 mb 0.13 in3.3 mm 0.00 in0.0 mm 0.13 in3.3 mm
02:00 AM 40.3°F4.6°C 37.4°F3.0°C 87% 2.9 mph ESE4.7 kmh ESE 5.8 mph9.3 kmh 28.91 in979.0 mb 0.13 in3.3 mm 0.00 in0.0 mm 0.13 in3.3 mm
02:05 AM 40.3°F4.6°C 37.4°F3.0°C 87% 3.3 mph SE5.3 kmh SE 6.3 mph10.1 kmh 28.88 in978.0 mb 0.13 in3.3 mm 0.00 in0.0 mm 0.13 in3.3 mm
02:10 AM 40.3°F4.6°C 37.4°F3.0°C 87% 4.0 mph SE6.4 kmh SE 7.8 mph12.6 kmh 28.88 in978.0 mb 0.13 in3.3 mm 0.00 in0.0 mm 0.13 in3.3 mm
02:15 AM 40.3°F4.6°C 37.4°F3.0°C 87% 3.7 mph ESE6.0 kmh ESE 7.8 mph12.6 kmh 28.88 in978.0 mb 0.13 in3.3 mm 0.00 in0.0 mm 0.13 in3.3 mm
02:20 AM 40.3°F4.6°C 37.4°F3.0°C 87% 3.4 mph E5.5 kmh E 6.0 mph9.7 kmh 28.85 in977.0 mb 0.13 in3.3 mm 0.00 in0.0 mm 0.13 in3.3 mm
02:25 AM 40.1°F4.5°C 37.4°F3.0°C 87% 2.7 mph E4.3 kmh E 6.0 mph9.7 kmh 28.85 in977.0 mb 0.13 in3.3 mm 0.00 in0.0 mm 0.13 in3.3 mm
02:30 AM 40.1°F4.5°C 37.4°F3.0°C 87% 2.9 mph E4.7 kmh E 6.3 mph10.1 kmh 28.85 in977.0 mb 0.13 in3.3 mm 0.00 in0.0 mm 0.13 in3.3 mm
02:35 AM 40.1°F4.5°C 37.4°F3.0°C 87% 3.2 mph ENE5.1 kmh ENE 6.3 mph10.1 kmh 28.85 in977.0 mb 0.13 in3.3 mm 0.00 in0.0 mm 0.13 in3.3 mm
02:40 AM 40.1°F4.5°C 37.4°F3.0°C 87% 3.1 mph E5.0 kmh E 4.3 mph6.9 kmh 28.85 in977.0 mb 0.13 in3.3 mm 0.00 in0.0 mm 0.13 in3.3 mm
02:45 AM 40.1°F4.5°C 37.4°F3.0°C 87% 3.9 mph E6.3 kmh E 7.4 mph11.9 kmh 28.85 in977.0 mb 0.13 in3.3 mm 0.00 in0.0 mm 0.13 in3.3 mm
02:50 AM 40.1°F4.5°C 37.4°F3.0°C 87% 4.9 mph E7.9 kmh E 7.4 mph11.9 kmh 28.82 in976.0 mb 0.00 in0.0 mm 0.00 in0.0 mm 0.13 in3.3 mm
02:55 AM 40.1°F4.5°C 37.4°F3.0°C 88% 4.5 mph E7.2 kmh E 6.9 mph11.1 kmh 28.82 in976.0 mb 0.00 in0.0 mm 0.00 in0.0 mm 0.13 in3.3 mm
03:00 AM 40.1°F4.5°C 37.4°F3.0°C 88% 4.7 mph E7.6 kmh E 7.8 mph12.6 kmh 28.82 in976.0 mb 0.00 in0.0 mm 0.00 in0.0 mm 0.13 in3.3 mm
03:05 AM 40.1°F4.5°C 37.4°F3.0°C 88% 5.7 mph E9.2 kmh E 10.3 mph16.6 kmh 28.80 in975.3 mb 0.00 in0.0 mm 0.00 in0.0 mm 0.13 in3.3 mm
03:10 AM 40.1°F4.5°C 37.4°F3.0°C 88% 5.7 mph E9.2 kmh E 10.3 mph16.6 kmh 28.80 in975.3 mb 0.00 in0.0 mm 0.00 in0.0 mm 0.13 in3.3 mm
03:15 AM 40.1°F4.5°C 37.4°F3.0°C 88% 5.6 mph E9.0 kmh E 8.9 mph14.3 kmh 28.80 in975.3 mb 0.00 in0.0 mm 0.00 in0.0 mm 0.13 in3.3 mm
03:20 AM 40.1°F4.5°C 37.4°F3.0°C 88% 5.7 mph E9.2 kmh E 7.6 mph12.2 kmh 28.77 in974.3 mb 0.00 in0.0 mm 0.00 in0.0 mm 0.13 in3.3 mm
03:25 AM 40.3°F4.6°C 37.4°F3.0°C 88% 6.6 mph E10.6 kmh E 10.1 mph16.3 kmh 28.77 in974.3 mb 0.00 in0.0 mm 0.00 in0.0 mm 0.13 in3.3 mm
03:30 AM 40.3°F4.6°C 37.4°F3.0°C 88% 7.6 mph E12.2 kmh E 10.1 mph16.3 kmh 28.77 in974.3 mb 0.00 in0.0 mm 0.00 in0.0 mm 0.13 in3.3 mm
03:35 AM 40.3°F4.6°C 37.4°F3.0°C 88% 7.1 mph E11.4 kmh E 8.5 mph13.7 kmh 28.77 in974.3 mb 0.00 in0.0 mm 0.00 in0.0 mm 0.13 in3.3 mm
03:40 AM 40.5°F4.7°C 37.4°F3.0°C 88% 7.0 mph E11.3 kmh E 10.1 mph16.3 kmh 28.77 in974.3 mb 0.00 in0.0 mm 0.00 in0.0 mm 0.13 in3.3 mm
03:45 AM 40.5°F4.7°C 37.4°F3.0°C 88% 7.8 mph ESE12.6 kmh ESE 11.0 mph17.7 kmh 28.77 in974.3 mb 0.00 in0.0 mm 0.00 in0.0 mm 0.13 in3.3 mm
03:50 AM 40.5°F4.7°C 37.4°F3.0°C 88% 8.2 mph ESE13.2 kmh ESE 11.0 mph17.7 kmh 28.74 in973.2 mb 0.00 in0.0 mm 0.00 in0.0 mm 0.13 in3.3 mm
03:55 AM 40.5°F4.7°C 37.4°F3.0°C 88% 8.0 mph ESE12.9 kmh ESE 11.9 mph19.2 kmh 28.74 in973.2 mb 0.11 in2.8 mm 1.32 in33.5 mm 0.24 in6.1 mm
04:00 AM 40.5°F4.7°C 37.4°F3.0°C 88% 7.9 mph E12.7 kmh E 11.9 mph19.2 kmh 28.74 in973.2 mb 0.11 in2.8 mm 0.00 in0.0 mm 0.24 in6.1 mm
04:05 AM 40.5°F4.7°C 37.4°F3.0°C 88% 7.5 mph E12.1 kmh E 11.9 mph19.2 kmh 28.68 in971.2 mb 0.24 in6.1 mm 1.56 in39.6 mm 0.36 in9.1 mm
04:10 AM 40.5°F4.7°C 37.4°F3.0°C 88% 7.8 mph E12.6 kmh E 10.3 mph16.6 kmh 28.68 in971.2 mb 0.24 in6.1 mm 0.00 in0.0 mm 0.36 in9.1 mm
04:15 AM 40.6°F4.8°C 37.4°F3.0°C 88% 6.5 mph E10.5 kmh E 10.1 mph16.3 kmh 28.68 in971.2 mb 0.24 in6.1 mm 0.00 in0.0 mm 0.36 in9.1 mm
04:20 AM 40.6°F4.8°C 37.4°F3.0°C 88% 4.5 mph ESE7.2 kmh ESE 8.5 mph13.7 kmh 28.71 in972.2 mb 0.35 in8.9 mm 1.32 in33.5 mm 0.48 in12.2 mm
04:25 AM 40.8°F4.9°C 37.4°F3.0°C 88% 3.6 mph SE5.8 kmh SE 6.5 mph10.5 kmh 28.71 in972.2 mb 0.46 in11.7 mm 1.32 in33.5 mm 0.59 in15.0 mm
04:30 AM 40.8°F4.9°C 37.4°F3.0°C 89% 5.4 mph E8.7 kmh E 10.1 mph16.3 kmh 28.71 in972.2 mb 0.46 in11.7 mm 0.00 in0.0 mm 0.59 in15.0 mm
04:35 AM 40.8°F4.9°C 37.4°F3.0°C 89% 6.4 mph E10.3 kmh E 10.1 mph16.3 kmh 28.71 in972.2 mb 0.57 in14.5 mm 1.32 in33.5 mm 0.70 in17.8 mm
04:40 AM 40.8°F4.9°C 37.4°F3.0°C 89% 5.4 mph E8.7 kmh E 7.2 mph11.6 kmh 28.71 in972.2 mb 0.57 in14.5 mm 0.00 in0.0 mm 0.70 in17.8 mm
04:45 AM 40.8°F4.9°C 37.4°F3.0°C 89% 6.1 mph E9.8 kmh E 8.7 mph14.0 kmh 28.71 in972.2 mb 0.57 in14.5 mm 0.00 in0.0 mm 0.70 in17.8 mm
04:50 AM 40.8°F4.9°C 37.4°F3.0°C 89% 4.9 mph E7.9 kmh E 8.7 mph14.0 kmh 28.71 in972.2 mb 0.57 in14.5 mm 0.00 in0.0 mm 0.70 in17.8 mm
04:55 AM 40.8°F4.9°C 37.4°F3.0°C 89% 3.5 mph ENE5.6 kmh ENE 4.9 mph7.9 kmh 28.68 in971.2 mb 0.46 in11.7 mm 0.00 in0.0 mm 0.70 in17.8 mm
05:00 AM 40.8°F4.9°C 37.4°F3.0°C 89% 3.3 mph ENE5.3 kmh ENE 4.9 mph7.9 kmh 28.68 in971.2 mb 0.46 in11.7 mm 0.00 in0.0 mm 0.70 in17.8 mm
05:05 AM 40.8°F4.9°C 37.4°F3.0°C 89% 3.2 mph ENE5.1 kmh ENE 4.9 mph7.9 kmh 28.68 in971.2 mb 0.46 in11.7 mm 0.00 in0.0 mm 0.83 in21.1 mm
05:10 AM 40.8°F4.9°C 37.4°F3.0°C 89% 3.1 mph ENE5.0 kmh ENE 4.3 mph6.9 kmh 28.65 in970.2 mb 0.46 in11.7 mm 0.00 in0.0 mm 0.83 in21.1 mm
05:15 AM 40.8°F4.9°C 37.4°F3.0°C 89% 3.2 mph NE5.1 kmh NE 4.3 mph6.9 kmh 28.65 in970.2 mb 0.35 in8.9 mm 0.00 in0.0 mm 0.83 in21.1 mm
05:20 AM 40.8°F4.9°C 37.4°F3.0°C 89% 2.3 mph E3.7 kmh E 4.3 mph6.9 kmh 28.65 in970.2 mb 0.35 in8.9 mm 0.00 in0.0 mm 0.83 in21.1 mm
05:25 AM 40.8°F4.9°C 37.4°F3.0°C 89% 1.3 mph SW2.1 kmh SW 3.1 mph5.0 kmh 28.65 in970.2 mb 0.24 in6.1 mm 0.00 in0.0 mm 0.83 in21.1 mm
05:30 AM 40.8°F4.9°C 37.4°F3.0°C 89% 0.7 mph WSW1.1 kmh WSW 2.0 mph3.2 kmh 28.65 in970.2 mb 0.24 in6.1 mm 0.00 in0.0 mm 0.83 in21.1 mm
05:35 AM 40.6°F4.8°C 37.4°F3.0°C 89% 0.2 mph WSW0.3 kmh WSW 1.3 mph2.1 kmh 28.65 in970.2 mb 0.13 in3.3 mm 0.00 in0.0 mm 0.83 in21.1 mm
05:40 AM 40.6°F4.8°C 37.4°F3.0°C 89% 0.4 mph WSW0.6 kmh WSW 2.0 mph3.2 kmh 28.65 in970.2 mb 0.13 in3.3 mm 0.00 in0.0 mm 0.83 in21.1 mm
05:45 AM 40.6°F4.8°C 37.4°F3.0°C 89% 0.5 mph WSW0.8 kmh WSW 2.0 mph3.2 kmh 28.65 in970.2 mb 0.13 in3.3 mm 0.00 in0.0 mm 0.83 in21.1 mm
05:50 AM 40.6°F4.8°C 37.4°F3.0°C 89% 0.2 mph WSW0.3 kmh WSW 0.9 mph1.4 kmh 28.65 in970.2 mb 0.13 in3.3 mm 0.00 in0.0 mm 0.83 in21.1 mm
05:55 AM 40.6°F4.8°C 37.4°F3.0°C 89% 0.1 mph WSW0.2 kmh WSW 1.1 mph1.8 kmh 28.62 in969.2 mb 0.13 in3.3 mm 0.00 in0.0 mm 0.83 in21.1 mm
06:00 AM 40.6°F4.8°C 37.4°F3.0°C 89% 0.1 mph WSW0.2 kmh WSW 1.1 mph1.8 kmh 28.62 in969.2 mb 0.13 in3.3 mm 0.00 in0.0 mm 0.83 in21.1 mm
06:05 AM 40.5°F4.7°C 37.4°F3.0°C 89% 0.1 mph WSW0.2 kmh WSW 0.9 mph1.4 kmh 28.62 in969.2 mb 0.00 in0.0 mm 0.00 in0.0 mm 0.83 in21.1 mm
06:10 AM 40.5°F4.7°C 37.4°F3.0°C 89% 0.4 mph WSW0.6 kmh WSW 1.6 mph2.6 kmh 28.65 in970.2 mb 0.00 in0.0 mm 0.00 in0.0 mm 0.83 in21.1 mm
06:15 AM 40.5°F4.7°C 37.4°F3.0°C 89% 1.3 mph WSW2.1 kmh WSW 2.9 mph4.7 kmh 28.65 in970.2 mb 0.00 in0.0 mm 0.00 in0.0 mm 0.83 in21.1 mm
06:20 AM 40.3°F4.6°C 37.4°F3.0°C 89% 3.2 mph WSW5.1 kmh WSW 6.3 mph10.1 kmh 28.65 in970.2 mb 0.00 in0.0 mm 0.00 in0.0 mm 0.83 in21.1 mm
06:25 AM 40.3°F4.6°C 37.4°F3.0°C 89% 3.9 mph W6.3 kmh W 6.3 mph10.1 kmh 28.65 in970.2 mb 0.11 in2.8 mm 1.32 in33.5 mm 0.94 in23.9 mm
06:30 AM 40.1°F4.5°C 37.4°F3.0°C 89% 3.8 mph W6.1 kmh W 4.9 mph7.9 kmh 28.65 in970.2 mb 0.11 in2.8 mm 0.00 in0.0 mm 0.94 in23.9 mm
06:35 AM 40.1°F4.5°C 37.4°F3.0°C 89% 3.6 mph W5.8 kmh W 4.9 mph7.9 kmh 28.65 in970.2 mb 0.11 in2.8 mm 0.00 in0.0 mm 0.94 in23.9 mm
06:40 AM 39.9°F4.4°C 37.4°F3.0°C 89% 2.5 mph W4.0 kmh W 4.9 mph7.9 kmh 28.62 in969.2 mb 0.11 in2.8 mm 0.00 in0.0 mm 0.94 in23.9 mm
06:45 AM 39.9°F4.4°C 37.4°F3.0°C 89% 2.3 mph W3.7 kmh W 3.4 mph5.5 kmh 28.62 in969.2 mb 0.11 in2.8 mm 0.00 in0.0 mm 0.94 in23.9 mm
06:50 AM 39.7°F4.3°C 37.4°F3.0°C 89% 2.5 mph WNW4.0 kmh WNW 3.6 mph5.8 kmh 28.62 in969.2 mb 0.11 in2.8 mm 0.00 in0.0 mm 0.94 in23.9 mm
06:55 AM 39.6°F4.2°C 37.4°F3.0°C 89% 2.5 mph W4.0 kmh W 4.3 mph6.9 kmh 28.65 in970.2 mb 0.11 in2.8 mm 0.00 in0.0 mm 0.94 in23.9 mm
07:00 AM 39.6°F4.2°C 37.4°F3.0°C 89% 2.7 mph WSW4.3 kmh WSW 4.9 mph7.9 kmh 28.65 in970.2 mb 0.11 in2.8 mm 0.00 in0.0 mm 0.94 in23.9 mm
07:05 AM 39.6°F4.2°C 37.4°F3.0°C 89% 3.4 mph WSW5.5 kmh WSW 4.9 mph7.9 kmh 28.65 in970.2 mb 0.11 in2.8 mm 0.00 in0.0 mm 0.94 in23.9 mm
07:10 AM 39.4°F4.1°C 35.6°F2.0°C 88% 3.8 mph WSW6.1 kmh WSW 4.9 mph7.9 kmh 28.47 in964.1 mb 0.23 in5.8 mm 1.44 in36.6 mm 1.05 in26.7 mm
07:15 AM 39.4°F4.1°C 35.6°F2.0°C 88% 3.2 mph WSW5.1 kmh WSW 4.9 mph7.9 kmh 28.47 in964.1 mb 0.23 in5.8 mm 0.00 in0.0 mm 1.05 in26.7 mm
07:20 AM 39.4°F4.1°C 35.6°F2.0°C 88% 3.0 mph WSW4.8 kmh WSW 4.9 mph7.9 kmh 28.47 in964.1 mb 0.23 in5.8 mm 0.00 in0.0 mm 1.05 in26.7 mm
07:25 AM 39.2°F4.0°C 35.6°F2.0°C 88% 3.0 mph WSW4.8 kmh WSW 4.9 mph7.9 kmh 28.65 in970.2 mb 0.11 in2.8 mm 0.00 in0.0 mm 1.05 in26.7 mm
07:30 AM 39.2°F4.0°C 35.6°F2.0°C 88% 2.1 mph WSW3.4 kmh WSW 4.9 mph7.9 kmh 28.65 in970.2 mb 0.23 in5.8 mm 1.44 in36.6 mm 1.16 in29.5 mm
07:35 AM 39.2°F4.0°C 35.6°F2.0°C 88% 2.2 mph WSW3.5 kmh WSW 4.9 mph7.9 kmh 28.65 in970.2 mb 0.23 in5.8 mm 0.00 in0.0 mm 1.16 in29.5 mm
07:40 AM 39.2°F4.0°C 35.6°F2.0°C 88% 2.3 mph W3.7 kmh W 3.6 mph5.8 kmh 28.65 in970.2 mb 0.23 in5.8 mm 0.00 in0.0 mm 1.16 in29.5 mm
07:45 AM 39.0°F3.9°C 35.6°F2.0°C 88% 1.6 mph W2.6 kmh W 3.1 mph5.0 kmh 28.65 in970.2 mb 0.23 in5.8 mm 0.00 in0.0 mm 1.16 in29.5 mm
07:50 AM 38.8°F3.8°C 35.6°F2.0°C 88% 1.7 mph W2.7 kmh W 2.7 mph4.3 kmh 28.65 in970.2 mb 0.23 in5.8 mm 0.00 in0.0 mm 1.16 in29.5 mm
07:55 AM 38.7°F3.7°C 35.6°F2.0°C 88% 2.3 mph W3.7 kmh W 2.7 mph4.3 kmh 28.68 in971.2 mb 0.23 in5.8 mm 0.00 in0.0 mm 1.16 in29.5 mm
08:00 AM 38.7°F3.7°C 35.6°F2.0°C 88% 3.1 mph WSW5.0 kmh WSW 6.7 mph10.8 kmh 28.68 in971.2 mb 0.35 in8.9 mm 0.13 in3.3 mm 1.29 in32.8 mm
08:05 AM 38.5°F3.6°C 35.6°F2.0°C 88% 3.0 mph WSW4.8 kmh WSW 6.7 mph10.8 kmh 28.68 in971.2 mb 0.24 in6.1 mm 0.00 in0.0 mm 1.29 in32.8 mm
08:10 AM 38.3°F3.5°C 35.6°F2.0°C 88% 2.5 mph W4.0 kmh W 3.8 mph6.1 kmh 28.68 in971.2 mb 0.24 in6.1 mm 0.00 in0.0 mm 1.29 in32.8 mm
08:15 AM 38.3°F3.5°C 35.6°F2.0°C 88% 2.8 mph W4.5 kmh W 4.3 mph6.9 kmh 28.68 in971.2 mb 0.24 in6.1 mm 0.00 in0.0 mm 1.29 in32.8 mm
08:20 AM 38.3°F3.5°C 35.6°F2.0°C 88% 2.8 mph W4.5 kmh W 4.3 mph6.9 kmh 28.68 in971.2 mb 0.35 in8.9 mm 1.32 in33.5 mm 1.40 in35.6 mm
08:25 AM 38.1°F3.4°C 35.6°F2.0°C 88% 2.8 mph W4.5 kmh W 4.3 mph6.9 kmh 28.68 in971.2 mb 0.35 in8.9 mm 0.00 in0.0 mm 1.40 in35.6 mm
08:30 AM 38.1°F3.4°C 35.6°F2.0°C 88% 2.3 mph W3.7 kmh W 3.6 mph5.8 kmh 28.68 in971.2 mb 0.24 in6.1 mm 0.00 in0.0 mm 1.40 in35.6 mm
08:35 AM 37.9°F3.3°C 35.6°F2.0°C 88% 2.5 mph WSW4.0 kmh WSW 4.0 mph6.4 kmh 28.68 in971.2 mb 0.24 in6.1 mm 0.00 in0.0 mm 1.40 in35.6 mm
08:40 AM 37.9°F3.3°C 35.6°F2.0°C 88% 2.5 mph WSW4.0 kmh WSW 4.0 mph6.4 kmh 28.68 in971.2 mb 0.24 in6.1 mm 0.00 in0.0 mm 1.40 in35.6 mm
08:45 AM 37.8°F3.2°C 35.6°F2.0°C 88% 2.4 mph W3.9 kmh W 3.6 mph5.8 kmh 28.68 in971.2 mb 0.24 in6.1 mm 0.00 in0.0 mm 1.40 in35.6 mm
08:50 AM 37.8°F3.2°C 35.6°F2.0°C 88% 2.5 mph W4.0 kmh W 3.4 mph5.5 kmh 28.68 in971.2 mb 0.24 in6.1 mm 0.00 in0.0 mm 1.40 in35.6 mm
08:55 AM 37.6°F3.1°C 33.8°F1.0°C 88% 3.0 mph W4.8 kmh W 3.8 mph6.1 kmh 28.71 in972.2 mb 0.11 in2.8 mm 0.00 in0.0 mm 1.40 in35.6 mm
09:00 AM 37.4°F3.0°C 33.8°F1.0°C 88% 3.3 mph W5.3 kmh W 4.7 mph7.6 kmh 28.71 in972.2 mb 0.11 in2.8 mm 0.00 in0.0 mm 1.40 in35.6 mm
09:05 AM 37.2°F2.9°C 33.8°F1.0°C 88% 3.1 mph W5.0 kmh W 5.4 mph8.7 kmh 28.71 in972.2 mb 0.11 in2.8 mm 0.00 in0.0 mm 1.40 in35.6 mm
09:10 AM 37.2°F2.9°C 33.8°F1.0°C 88% 3.1 mph WSW5.0 kmh WSW 5.6 mph9.0 kmh 28.65 in970.2 mb 0.11 in2.8 mm 0.00 in0.0 mm 1.40 in35.6 mm
09:15 AM 37.2°F2.9°C 33.8°F1.0°C 88% 2.7 mph W4.3 kmh W 5.6 mph9.0 kmh 28.65 in970.2 mb 0.11 in2.8 mm 0.00 in0.0 mm 1.40 in35.6 mm
09:20 AM 37.2°F2.9°C 33.8°F1.0°C 88% 2.3 mph W3.7 kmh W 3.8 mph6.1 kmh 28.65 in970.2 mb 0.00 in0.0 mm 0.00 in0.0 mm 1.40 in35.6 mm
09:25 AM 37.0°F2.8°C 33.8°F1.0°C 87% 3.4 mph W5.5 kmh W 6.3 mph10.1 kmh 28.71 in972.2 mb 0.11 in2.8 mm 1.32 in33.5 mm 1.51 in38.4 mm
09:30 AM 37.0°F2.8°C 33.8°F1.0°C 87% 4.1 mph W6.6 kmh W 6.3 mph10.1 kmh 28.71 in972.2 mb 0.11 in2.8 mm 0.00 in0.0 mm 1.51 in38.4 mm
09:35 AM 36.9°F2.7°C 33.8°F1.0°C 87% 4.2 mph WSW6.8 kmh WSW 7.8 mph12.6 kmh 28.71 in972.2 mb 0.11 in2.8 mm 0.00 in0.0 mm 1.51 in38.4 mm
09:40 AM 36.9°F2.7°C 33.8°F1.0°C 87% 4.7 mph WSW7.6 kmh WSW 7.8 mph12.6 kmh 28.71 in972.2 mb 0.11 in2.8 mm 0.00 in0.0 mm 1.51 in38.4 mm
09:45 AM 36.9°F2.7°C 33.8°F1.0°C 87% 5.8 mph WSW9.3 kmh WSW 8.1 mph13.0 kmh 28.71 in972.2 mb 0.11 in2.8 mm 0.00 in0.0 mm 1.51 in38.4 mm
09:50 AM 36.9°F2.7°C 33.8°F1.0°C 87% 6.2 mph WSW10.0 kmh WSW 8.1 mph13.0 kmh 28.71 in972.2 mb 0.11 in2.8 mm 0.00 in0.0 mm 1.51 in38.4 mm
09:55 AM 37.0°F2.8°C 33.8°F1.0°C 87% 5.2 mph WSW8.4 kmh WSW 7.6 mph12.2 kmh 28.74 in973.2 mb 0.11 in2.8 mm 0.00 in0.0 mm 1.51 in38.4 mm
10:00 AM 37.0°F2.8°C 33.8°F1.0°C 87% 4.8 mph W7.7 kmh W 7.4 mph11.9 kmh 28.74 in973.2 mb 0.11 in2.8 mm 0.00 in0.0 mm 1.51 in38.4 mm
10:05 AM 37.0°F2.8°C 33.8°F1.0°C 87% 4.8 mph WSW7.7 kmh WSW 6.7 mph10.8 kmh 28.74 in973.2 mb 0.11 in2.8 mm 0.00 in0.0 mm 1.51 in38.4 mm
10:10 AM 37.2°F2.9°C 33.8°F1.0°C 87% 4.3 mph WSW6.9 kmh WSW 6.7 mph10.8 kmh 28.74 in973.2 mb 0.11 in2.8 mm 0.00 in0.0 mm 1.51 in38.4 mm
10:15 AM 37.2°F2.9°C 33.8°F1.0°C 87% 3.4 mph WSW5.5 kmh WSW 6.7 mph10.8 kmh 28.74 in973.2 mb 0.11 in2.8 mm 0.00 in0.0 mm 1.51 in38.4 mm
10:20 AM 37.4°F3.0°C 33.8°F1.0°C 87% 3.1 mph W5.0 kmh W 5.8 mph9.3 kmh 28.74 in973.2 mb 0.11 in2.8 mm 0.00 in0.0 mm 1.51 in38.4 mm
10:25 AM 37.4°F3.0°C 33.8°F1.0°C 87% 3.7 mph W6.0 kmh W 5.8 mph9.3 kmh 28.74 in973.2 mb 0.00 in0.0 mm 0.00 in0.0 mm 1.51 in38.4 mm
10:30 AM 37.6°F3.1°C 33.8°F1.0°C 88% 3.9 mph W6.3 kmh W 4.9 mph7.9 kmh 28.74 in973.2 mb 0.00 in0.0 mm 0.00 in0.0 mm 1.51 in38.4 mm
10:35 AM 37.9°F3.3°C 35.6°F2.0°C 88% 3.9 mph W6.3 kmh W 5.6 mph9.0 kmh 28.74 in973.2 mb 0.00 in0.0 mm 0.00 in0.0 mm 1.51 in38.4 mm
10:40 AM 38.1°F3.4°C 35.6°F2.0°C 88% 3.9 mph W6.3 kmh W 5.6 mph9.0 kmh 28.74 in973.2 mb 0.00 in0.0 mm 0.00 in0.0 mm 1.51 in38.4 mm
10:45 AM 38.3°F3.5°C 35.6°F2.0°C 88% 4.1 mph W6.6 kmh W 5.8 mph9.3 kmh 28.74 in973.2 mb 0.00 in0.0 mm 0.00 in0.0 mm 1.51 in38.4 mm
10:50 AM 38.7°F3.7°C 35.6°F2.0°C 88% 4.8 mph W7.7 kmh W 8.1 mph13.0 kmh 28.74 in973.2 mb 0.00 in0.0 mm 0.00 in0.0 mm 1.51 in38.4 mm
10:55 AM 38.8°F3.8°C 35.6°F2.0°C 88% 5.4 mph W8.7 kmh W 12.1 mph19.5 kmh 28.74 in973.2 mb 0.00 in0.0 mm 0.00 in0.0 mm 1.51 in38.4 mm
11:00 AM 39.0°F3.9°C 35.6°F2.0°C 88% 5.1 mph W8.2 kmh W 12.1 mph19.5 kmh 28.74 in973.2 mb 0.00 in0.0 mm 0.00 in0.0 mm 1.51 in38.4 mm
11:05 AM 39.2°F4.0°C 35.6°F2.0°C 88% 4.7 mph W7.6 kmh W 6.5 mph10.5 kmh 28.74 in973.2 mb 0.00 in0.0 mm 0.00 in0.0 mm 1.51 in38.4 mm
11:10 AM 39.4°F4.1°C 35.6°F2.0°C 88% 5.8 mph WSW9.3 kmh WSW 9.6 mph15.4 kmh 28.77 in974.3 mb 0.00 in0.0 mm 0.00 in0.0 mm 1.51 in38.4 mm
11:15 AM 39.6°F4.2°C 37.4°F3.0°C 88% 6.5 mph W10.5 kmh W 9.6 mph15.4 kmh 28.77 in974.3 mb 0.00 in0.0 mm 0.00 in0.0 mm 1.51 in38.4 mm
11:20 AM 39.7°F4.3°C 37.4°F3.0°C 88% 6.7 mph WNW10.8 kmh WNW 10.7 mph17.2 kmh 28.77 in974.3 mb 0.00 in0.0 mm 0.00 in0.0 mm 1.51 in38.4 mm
11:25 AM 39.9°F4.4°C 37.4°F3.0°C 88% 7.3 mph W11.7 kmh W 10.7 mph17.2 kmh 28.80 in975.3 mb 0.00 in0.0 mm 0.00 in0.0 mm 1.51 in38.4 mm
11:30 AM 40.1°F4.5°C 37.4°F3.0°C 88% 6.0 mph W9.7 kmh W 8.5 mph13.7 kmh 28.80 in975.3 mb 0.00 in0.0 mm 0.00 in0.0 mm 1.51 in38.4 mm
11:35 AM 40.5°F4.7°C 37.4°F3.0°C 88% 5.8 mph W9.3 kmh W 11.0 mph17.7 kmh 28.80 in975.3 mb 0.00 in0.0 mm 0.00 in0.0 mm 1.51 in38.4 mm
11:40 AM 40.5°F4.7°C 37.4°F3.0°C 87% 6.8 mph WSW10.9 kmh WSW 11.0 mph17.7 kmh 28.80 in975.3 mb 0.00 in0.0 mm 0.00 in0.0 mm 1.51 in38.4 mm
11:45 AM 40.5°F4.7°C 37.4°F3.0°C 87% 6.7 mph W10.8 kmh W 11.0 mph17.7 kmh 28.80 in975.3 mb 0.00 in0.0 mm 0.00 in0.0 mm 1.51 in38.4 mm
11:50 AM 40.5°F4.7°C 37.4°F3.0°C 87% 5.9 mph WSW9.5 kmh WSW 7.8 mph12.6 kmh 28.80 in975.3 mb 0.00 in0.0 mm 0.00 in0.0 mm 1.51 in38.4 mm
11:55 AM 40.6°F4.8°C 37.4°F3.0°C 87% 5.5 mph WSW8.9 kmh WSW 7.4 mph11.9 kmh 28.65 in970.2 mb 0.00 in0.0 mm 0.00 in0.0 mm 1.51 in38.4 mm
12:00 PM 40.6°F4.8°C 37.4°F3.0°C 87% 5.2 mph W8.4 kmh W 7.4 mph11.9 kmh 28.65 in970.2 mb 0.00 in0.0 mm 0.00 in0.0 mm 1.51 in38.4 mm
12:05 PM 40.8°F4.9°C 37.4°F3.0°C 87% 4.7 mph WSW7.6 kmh WSW 7.4 mph11.9 kmh 28.65 in970.2 mb 0.00 in0.0 mm 0.00 in0.0 mm 1.51 in38.4 mm
12:10 PM 41.0°F5.0°C 37.4°F3.0°C 87% 5.6 mph WSW9.0 kmh WSW 10.5 mph16.9 kmh 28.82 in976.0 mb 0.00 in0.0 mm 0.00 in0.0 mm 1.51 in38.4 mm
12:15 PM 41.2°F5.1°C 37.4°F3.0°C 87% 5.6 mph WSW9.0 kmh WSW 10.5 mph16.9 kmh 28.82 in976.0 mb 0.00 in0.0 mm 0.00 in0.0 mm 1.51 in38.4 mm
12:20 PM 41.4°F5.2°C 37.4°F3.0°C 87% 5.5 mph WNW8.9 kmh WNW 8.1 mph13.0 kmh 28.82 in976.0 mb 0.00 in0.0 mm 0.00 in0.0 mm 1.51 in38.4 mm
12:25 PM 41.5°F5.3°C 37.4°F3.0°C 86% 6.1 mph WNW9.8 kmh WNW 8.1 mph13.0 kmh 28.82 in976.0 mb 0.00 in0.0 mm 0.00 in0.0 mm 1.51 in38.4 mm
12:30 PM 42.3°F5.7°C 39.2°F4.0°C 86% 6.1 mph W9.8 kmh W 8.7 mph14.0 kmh 28.82 in976.0 mb 0.00 in0.0 mm 0.00 in0.0 mm 1.51 in38.4 mm
12:35 PM 42.1°F5.6°C 39.2°F4.0°C 85% 6.4 mph W10.3 kmh W 8.7 mph14.0 kmh 28.82 in976.0 mb 0.00 in0.0 mm 0.00 in0.0 mm 1.51 in38.4 mm
12:40 PM 42.3°F5.7°C 39.2°F4.0°C 85% 4.9 mph WSW7.9 kmh WSW 7.6 mph12.2 kmh 28.85 in977.0 mb 0.00 in0.0 mm 0.00 in0.0 mm 1.51 in38.4 mm
12:45 PM 42.4°F5.8°C 39.2°F4.0°C 85% 4.5 mph WSW7.2 kmh WSW 7.6 mph12.2 kmh 28.85 in977.0 mb 0.00 in0.0 mm 0.00 in0.0 mm 1.51 in38.4 mm
12:50 PM 42.6°F5.9°C 39.2°F4.0°C 85% 5.3 mph WSW8.5 kmh WSW 7.8 mph12.6 kmh 28.85 in977.0 mb 0.00 in0.0 mm 0.00 in0.0 mm 1.51 in38.4 mm
12:55 PM 42.8°F6.0°C 39.2°F4.0°C 85% 6.0 mph W9.7 kmh W 9.4 mph15.1 kmh 28.85 in977.0 mb 0.00 in0.0 mm 0.00 in0.0 mm 1.51 in38.4 mm
01:00 PM 43.0°F6.1°C 39.2°F4.0°C 84% 6.1 mph WSW9.8 kmh WSW 9.4 mph15.1 kmh 28.85 in977.0 mb 0.00 in0.0 mm 0.00 in0.0 mm 1.51 in38.4 mm
01:05 PM 43.3°F6.3°C 39.2°F4.0°C 84% 6.0 mph WSW9.7 kmh WSW 8.7 mph14.0 kmh 28.85 in977.0 mb 0.00 in0.0 mm 0.00 in0.0 mm 1.51 in38.4 mm
01:10 PM 43.3°F6.3°C 39.2°F4.0°C 84% 6.3 mph WSW10.1 kmh WSW 8.7 mph14.0 kmh 28.85 in977.0 mb 0.00 in0.0 mm 0.00 in0.0 mm 1.51 in38.4 mm
01:15 PM 43.7°F6.5°C 39.2°F4.0°C 84% 6.8 mph W10.9 kmh W 11.0 mph17.7 kmh 28.85 in977.0 mb 0.00 in0.0 mm 0.00 in0.0 mm 1.51 in38.4 mm
01:20 PM 44.2°F6.8°C 39.2°F4.0°C 83% 7.6 mph W12.2 kmh W 11.0 mph17.7 kmh 28.85 in977.0 mb 0.00 in0.0 mm 0.00 in0.0 mm 1.51 in38.4 mm
01:25 PM 44.2°F6.8°C 39.2°F4.0°C 83% 7.5 mph WSW12.1 kmh WSW 10.3 mph16.6 kmh 28.88 in978.0 mb 0.00 in0.0 mm 0.00 in0.0 mm 1.51 in38.4 mm
01:30 PM 44.1°F6.7°C 39.2°F4.0°C 82% 7.7 mph WSW12.4 kmh WSW 10.7 mph17.2 kmh 28.88 in978.0 mb 0.00 in0.0 mm 0.00 in0.0 mm 1.51 in38.4 mm
01:35 PM 44.1°F6.7°C 39.2°F4.0°C 82% 8.0 mph WSW12.9 kmh WSW 11.0 mph17.7 kmh 28.88 in978.0 mb 0.00 in0.0 mm 0.00 in0.0 mm 1.51 in38.4 mm
01:40 PM 43.9°F6.6°C 39.2°F4.0°C 82% 7.9 mph WSW12.7 kmh WSW 11.0 mph17.7 kmh 28.85 in977.0 mb 0.00 in0.0 mm 0.00 in0.0 mm 1.51 in38.4 mm
01:45 PM 43.9°F6.6°C 39.2°F4.0°C 82% 6.7 mph WSW10.8 kmh WSW 10.1 mph16.3 kmh 28.85 in977.0 mb 0.00 in0.0 mm 0.00 in0.0 mm 1.51 in38.4 mm
01:50 PM 43.9°F6.6°C 39.2°F4.0°C 82% 7.0 mph WSW11.3 kmh WSW 12.1 mph19.5 kmh 28.85 in977.0 mb 0.00 in0.0 mm 0.00 in0.0 mm 1.51 in38.4 mm
01:55 PM 43.9°F6.6°C 39.2°F4.0°C 82% 8.4 mph WSW13.5 kmh WSW 13.2 mph21.2 kmh 28.88 in978.0 mb 0.00 in0.0 mm 0.00 in0.0 mm 1.51 in38.4 mm
02:00 PM 43.7°F6.5°C 39.2°F4.0°C 81% 9.8 mph WSW15.8 kmh WSW 15.2 mph24.5 kmh 28.88 in978.0 mb 0.00 in0.0 mm 0.00 in0.0 mm 1.51 in38.4 mm
02:05 PM 43.7°F6.5°C 39.2°F4.0°C 80% 9.0 mph WSW14.5 kmh WSW 15.2 mph24.5 kmh 28.88 in978.0 mb 0.00 in0.0 mm 0.00 in0.0 mm 1.51 in38.4 mm
02:10 PM 43.5°F6.4°C 37.4°F3.0°C 80% 8.0 mph WSW12.9 kmh WSW 12.5 mph20.1 kmh 28.88 in978.0 mb 0.00 in0.0 mm 0.00 in0.0 mm 1.51 in38.4 mm
02:15 PM 43.3°F6.3°C 37.4°F3.0°C 80% 7.1 mph WSW11.4 kmh WSW 10.3 mph16.6 kmh 28.88 in978.0 mb 0.00 in0.0 mm 0.00 in0.0 mm 1.51 in38.4 mm
02:20 PM 43.3°F6.3°C 37.4°F3.0°C 80% 6.4 mph WSW10.3 kmh WSW 12.1 mph19.5 kmh 28.88 in978.0 mb 0.00 in0.0 mm 0.00 in0.0 mm 1.51 in38.4 mm
02:25 PM 43.2°F6.2°C 37.4°F3.0°C 80% 8.0 mph WSW12.9 kmh WSW 12.1 mph19.5 kmh 28.91 in979.0 mb 0.00 in0.0 mm 0.00 in0.0 mm 1.51 in38.4 mm
02:30 PM 43.3°F6.3°C 37.4°F3.0°C 80% 8.4 mph WSW13.5 kmh WSW 12.1 mph19.5 kmh 28.91 in979.0 mb 0.00 in0.0 mm 0.00 in0.0 mm 1.51 in38.4 mm
02:35 PM 43.3°F6.3°C 37.4°F3.0°C 79% 6.6 mph WSW10.6 kmh WSW 10.1 mph16.3 kmh 28.91 in979.0 mb 0.00 in0.0 mm 0.00 in0.0 mm 1.51 in38.4 mm
02:40 PM 43.3°F6.3°C 37.4°F3.0°C 79% 6.0 mph WSW9.7 kmh WSW 10.1 mph16.3 kmh 28.91 in979.0 mb 0.00 in0.0 mm 0.00 in0.0 mm 1.51 in38.4 mm
02:45 PM 43.7°F6.5°C 37.4°F3.0°C 79% 6.9 mph WSW11.1 kmh WSW 10.1 mph16.3 kmh 28.91 in979.0 mb 0.00 in0.0 mm 0.00 in0.0 mm 1.51 in38.4 mm
02:50 PM 43.7°F6.5°C 37.4°F3.0°C 79% 8.1 mph WSW13.0 kmh WSW 10.1 mph16.3 kmh 28.91 in979.0 mb 0.00 in0.0 mm 0.00 in0.0 mm 1.51 in38.4 mm
02:55 PM 43.3°F6.3°C 37.4°F3.0°C 79% 7.9 mph WSW12.7 kmh WSW 10.7 mph17.2 kmh 28.91 in979.0 mb 0.00 in0.0 mm 0.00 in0.0 mm 1.51 in38.4 mm
03:00 PM 43.2°F6.2°C 37.4°F3.0°C 78% 6.0 mph W9.7 kmh W 10.7 mph17.2 kmh 28.91 in979.0 mb 0.00 in0.0 mm 0.00 in0.0 mm 1.51 in38.4 mm
03:05 PM 43.2°F6.2°C 37.4°F3.0°C 78% 6.1 mph WSW9.8 kmh WSW 12.8 mph20.6 kmh 28.91 in979.0 mb 0.00 in0.0 mm 0.00 in0.0 mm 1.51 in38.4 mm
03:10 PM 43.3°F6.3°C 37.4°F3.0°C 78% 7.0 mph W11.3 kmh W 12.8 mph20.6 kmh 28.91 in979.0 mb 0.00 in0.0 mm 0.00 in0.0 mm 1.51 in38.4 mm
03:15 PM 43.7°F6.5°C 37.4°F3.0°C 78% 7.4 mph W11.9 kmh W 10.3 mph16.6 kmh 28.91 in979.0 mb 0.00 in0.0 mm 0.00 in0.0 mm 1.51 in38.4 mm
03:20 PM 43.7°F6.5°C 37.4°F3.0°C 77% 8.3 mph WSW13.4 kmh WSW 10.7 mph17.2 kmh 28.91 in979.0 mb 0.00 in0.0 mm 0.00 in0.0 mm 1.51 in38.4 mm
03:25 PM 43.7°F6.5°C 37.4°F3.0°C 77% 8.5 mph WSW13.7 kmh WSW 10.7 mph17.2 kmh 28.91 in979.0 mb 0.00 in0.0 mm 0.00 in0.0 mm 1.51 in38.4 mm
03:30 PM 43.7°F6.5°C 37.4°F3.0°C 76% 7.6 mph WSW12.2 kmh WSW 12.1 mph19.5 kmh 28.91 in979.0 mb 0.00 in0.0 mm 0.00 in0.0 mm 1.51 in38.4 mm
03:35 PM 43.5°F6.4°C 37.4°F3.0°C 76% 6.6 mph WSW10.6 kmh WSW 12.1 mph19.5 kmh 28.91 in979.0 mb 0.00 in0.0 mm 0.00 in0.0 mm 1.51 in38.4 mm
03:40 PM 43.5°F6.4°C 37.4°F3.0°C 76% 6.3 mph WSW10.1 kmh WSW 13.2 mph21.2 kmh 28.94 in980.0 mb 0.00 in0.0 mm 0.00 in0.0 mm 1.51 in38.4 mm
03:45 PM 43.3°F6.3°C 37.4°F3.0°C 76% 6.6 mph WSW10.6 kmh WSW 13.2 mph21.2 kmh 28.94 in980.0 mb 0.00 in0.0 mm 0.00 in0.0 mm 1.51 in38.4 mm
03:50 PM 43.0°F6.1°C 35.6°F2.0°C 76% 5.3 mph WSW8.5 kmh WSW 8.5 mph13.7 kmh 28.94 in980.0 mb 0.00 in0.0 mm 0.00 in0.0 mm 1.51 in38.4 mm
03:55 PM 43.2°F6.2°C 37.4°F3.0°C 77% 6.4 mph WSW10.3 kmh WSW 10.5 mph16.9 kmh 28.94 in980.0 mb 0.00 in0.0 mm 0.00 in0.0 mm 1.51 in38.4 mm
04:00 PM 43.0°F6.1°C 37.4°F3.0°C 77% 8.5 mph SW13.7 kmh SW 12.8 mph20.6 kmh 28.94 in980.0 mb 0.00 in0.0 mm 0.00 in0.0 mm 1.51 in38.4 mm
04:05 PM 42.8°F6.0°C 37.4°F3.0°C 77% 9.1 mph WSW14.6 kmh WSW 13.0 mph20.9 kmh 28.94 in980.0 mb 0.00 in0.0 mm 0.00 in0.0 mm 1.51 in38.4 mm
04:10 PM 42.8°F6.0°C 37.4°F3.0°C 78% 9.0 mph WSW14.5 kmh WSW 13.0 mph20.9 kmh 28.94 in980.0 mb 0.00 in0.0 mm 0.00 in0.0 mm 1.51 in38.4 mm
04:15 PM 42.8°F6.0°C 37.4°F3.0°C 77% 8.8 mph WSW14.2 kmh WSW 13.0 mph20.9 kmh 28.94 in980.0 mb 0.00 in0.0 mm 0.00 in0.0 mm 1.51 in38.4 mm
04:20 PM 42.6°F5.9°C 37.4°F3.0°C 78% 8.5 mph WSW13.7 kmh WSW 12.3 mph19.8 kmh 28.94 in980.0 mb 0.00 in0.0 mm 0.00 in0.0 mm 1.51 in38.4 mm
04:25 PM 42.4°F5.8°C 37.4°F3.0°C 78% 7.3 mph WSW11.7 kmh WSW 12.1 mph19.5 kmh 28.94 in980.0 mb 0.00 in0.0 mm 0.00 in0.0 mm 1.51 in38.4 mm
04:30 PM 42.6°F5.9°C 37.4°F3.0°C 78% 6.8 mph WSW10.9 kmh WSW 10.7 mph17.2 kmh 28.94 in980.0 mb 0.00 in0.0 mm 0.00 in0.0 mm 1.51 in38.4 mm
04:35 PM 42.6°F5.9°C 37.4°F3.0°C 78% 7.0 mph SW11.3 kmh SW 12.1 mph19.5 kmh 28.94 in980.0 mb 0.00 in0.0 mm 0.00 in0.0 mm 1.51 in38.4 mm
04:40 PM 42.8°F6.0°C 37.4°F3.0°C 78% 6.6 mph SW10.6 kmh SW 12.1 mph19.5 kmh 28.97 in981.0 mb 0.00 in0.0 mm 0.00 in0.0 mm 1.51 in38.4 mm
04:45 PM 42.6°F5.9°C 37.4°F3.0°C 77% 6.7 mph WSW10.8 kmh WSW 12.3 mph19.8 kmh 28.97 in981.0 mb 0.00 in0.0 mm 0.00 in0.0 mm 1.51 in38.4 mm
04:50 PM 42.4°F5.8°C 37.4°F3.0°C 78% 7.1 mph WSW11.4 kmh WSW 12.3 mph19.8 kmh 28.97 in981.0 mb 0.00 in0.0 mm 0.00 in0.0 mm 1.51 in38.4 mm
04:55 PM 42.3°F5.7°C 35.6°F2.0°C 78% 6.1 mph WSW9.8 kmh WSW 12.3 mph19.8 kmh 28.97 in981.0 mb 0.00 in0.0 mm 0.00 in0.0 mm 1.51 in38.4 mm
05:00 PM 42.4°F5.8°C 37.4°F3.0°C 78% 6.4 mph WSW10.3 kmh WSW 11.0 mph17.7 kmh 28.97 in981.0 mb 0.00 in0.0 mm 0.00 in0.0 mm 1.51 in38.4 mm
05:05 PM 42.4°F5.8°C 37.4°F3.0°C 78% 7.5 mph WSW12.1 kmh WSW 11.0 mph17.7 kmh 28.97 in981.0 mb 0.00 in0.0 mm 0.00 in0.0 mm 1.51 in38.4 mm
05:10 PM 42.1°F5.6°C 35.6°F2.0°C 78% 6.8 mph WSW10.9 kmh WSW 9.8 mph15.8 kmh 28.94 in980.0 mb 0.00 in0.0 mm 0.00 in0.0 mm 1.51 in38.4 mm
05:15 PM 41.7°F5.4°C 35.6°F2.0°C 78% 6.2 mph WSW10.0 kmh WSW 10.3 mph16.6 kmh 28.94 in980.0 mb 0.00 in0.0 mm 0.00 in0.0 mm 1.51 in38.4 mm
05:20 PM 41.5°F5.3°C 35.6°F2.0°C 78% 6.4 mph WSW10.3 kmh WSW 10.3 mph16.6 kmh 28.94 in980.0 mb 0.00 in0.0 mm 0.00 in0.0 mm 1.51 in38.4 mm
05:25 PM 41.2°F5.1°C 35.6°F2.0°C 78% 5.5 mph WSW8.9 kmh WSW 10.1 mph16.3 kmh 28.97 in981.0 mb 0.00 in0.0 mm 0.00 in0.0 mm 1.51 in38.4 mm
05:30 PM 41.0°F5.0°C 35.6°F2.0°C 79% 3.3 mph WSW5.3 kmh WSW 5.4 mph8.7 kmh 28.97 in981.0 mb 0.00 in0.0 mm 0.00 in0.0 mm 1.51 in38.4 mm
05:35 PM 40.8°F4.9°C 35.6°F2.0°C 79% 3.4 mph WSW5.5 kmh WSW 7.8 mph12.6 kmh 28.97 in981.0 mb 0.00 in0.0 mm 0.00 in0.0 mm 1.51 in38.4 mm
05:40 PM 40.6°F4.8°C 33.8°F1.0°C 79% 3.8 mph WSW6.1 kmh WSW 7.8 mph12.6 kmh 28.97 in981.0 mb 0.00 in0.0 mm 0.00 in0.0 mm 1.51 in38.4 mm
05:45 PM 40.8°F4.9°C 35.6°F2.0°C 79% 4.8 mph WSW7.7 kmh WSW 8.7 mph14.0 kmh 28.97 in981.0 mb 0.00 in0.0 mm 0.00 in0.0 mm 1.51 in38.4 mm
05:50 PM 40.6°F4.8°C 33.8°F1.0°C 79% 6.8 mph WSW10.9 kmh WSW 13.0 mph20.9 kmh 28.97 in981.0 mb 0.00 in0.0 mm 0.00 in0.0 mm 1.51 in38.4 mm
05:55 PM 40.8°F4.9°C 35.6°F2.0°C 79% 7.0 mph WSW11.3 kmh WSW 13.0 mph20.9 kmh 28.97 in981.0 mb 0.00 in0.0 mm 0.00 in0.0 mm 1.51 in38.4 mm
06:00 PM 40.6°F4.8°C 33.8°F1.0°C 79% 7.0 mph WSW11.3 kmh WSW 11.0 mph17.7 kmh 28.97 in981.0 mb 0.00 in0.0 mm 0.00 in0.0 mm 1.51 in38.4 mm
06:05 PM 40.5°F4.7°C 33.8°F1.0°C 79% 7.2 mph WSW11.6 kmh WSW 11.0 mph17.7 kmh 28.97 in981.0 mb 0.00 in0.0 mm 0.00 in0.0 mm 1.51 in38.4 mm
06:10 PM 40.6°F4.8°C 33.8°F1.0°C 79% 7.7 mph WSW12.4 kmh WSW 10.7 mph17.2 kmh 28.97 in981.0 mb 0.00 in0.0 mm 0.00 in0.0 mm 1.51 in38.4 mm
06:15 PM 40.6°F4.8°C 33.8°F1.0°C 79% 7.6 mph WSW12.2 kmh WSW 10.7 mph17.2 kmh 28.97 in981.0 mb 0.00 in0.0 mm 0.00 in0.0 mm 1.51 in38.4 mm
06:20 PM 40.3°F4.6°C 33.8°F1.0°C 79% 6.0 mph WSW9.7 kmh WSW 9.6 mph15.4 kmh 28.97 in981.0 mb 0.00 in0.0 mm 0.00 in0.0 mm 1.51 in38.4 mm
06:25 PM 39.9°F4.4°C 33.8°F1.0°C 79% 4.5 mph WSW7.2 kmh WSW 7.2 mph11.6 kmh 28.97 in981.0 mb 0.00 in0.0 mm 0.00 in0.0 mm 1.51 in38.4 mm
06:30 PM 39.7°F4.3°C 33.8°F1.0°C 80% 3.9 mph WSW6.3 kmh WSW 4.9 mph7.9 kmh 28.97 in981.0 mb 0.00 in0.0 mm 0.00 in0.0 mm 1.51 in38.4 mm
06:35 PM 39.6°F4.2°C 33.8°F1.0°C 80% 3.5 mph WSW5.6 kmh WSW 4.9 mph7.9 kmh 28.97 in981.0 mb 0.00 in0.0 mm 0.00 in0.0 mm 1.51 in38.4 mm
06:40 PM 39.6°F4.2°C 33.8°F1.0°C 80% 3.4 mph WSW5.5 kmh WSW 5.4 mph8.7 kmh 28.97 in981.0 mb 0.00 in0.0 mm 0.00 in0.0 mm 1.51 in38.4 mm
06:45 PM 39.4°F4.1°C 33.8°F1.0°C 80% 3.6 mph WSW5.8 kmh WSW 5.8 mph9.3 kmh 28.97 in981.0 mb 0.00 in0.0 mm 0.00 in0.0 mm 1.51 in38.4 mm
06:50 PM 39.0°F3.9°C 33.8°F1.0°C 80% 2.8 mph WSW4.5 kmh WSW 5.8 mph9.3 kmh 28.97 in981.0 mb 0.00 in0.0 mm 0.00 in0.0 mm 1.51 in38.4 mm
06:55 PM 38.7°F3.7°C 33.8°F1.0°C 80% 1.9 mph SW3.1 kmh SW 3.1 mph5.0 kmh 29.00 in982.1 mb 0.00 in0.0 mm 0.00 in0.0 mm 1.51 in38.4 mm
07:00 PM 38.5°F3.6°C 33.8°F1.0°C 81% 1.9 mph SW3.1 kmh SW 4.3 mph6.9 kmh 29.00 in982.1 mb 0.00 in0.0 mm 0.00 in0.0 mm 1.51 in38.4 mm
07:05 PM 38.5°F3.6°C 33.8°F1.0°C 81% 2.3 mph WSW3.7 kmh WSW 4.3 mph6.9 kmh 29.00 in982.1 mb 0.00 in0.0 mm 0.00 in0.0 mm 1.51 in38.4 mm
07:10 PM 38.3°F3.5°C 33.8°F1.0°C 81% 2.3 mph WSW3.7 kmh WSW 3.8 mph6.1 kmh 28.97 in981.0 mb 0.00 in0.0 mm 0.00 in0.0 mm 1.51 in38.4 mm
07:15 PM 38.1°F3.4°C 33.8°F1.0°C 81% 2.7 mph SW4.3 kmh SW 4.9 mph7.9 kmh 28.97 in981.0 mb 0.00 in0.0 mm 0.00 in0.0 mm 1.51 in38.4 mm
07:20 PM 38.5°F3.6°C 33.8°F1.0°C 81% 3.1 mph WSW5.0 kmh WSW 4.9 mph7.9 kmh 28.97 in981.0 mb 0.00 in0.0 mm 0.00 in0.0 mm 1.51 in38.4 mm
07:25 PM 38.3°F3.5°C 33.8°F1.0°C 82% 2.7 mph WSW4.3 kmh WSW 4.3 mph6.9 kmh 29.00 in982.1 mb 0.00 in0.0 mm 0.00 in0.0 mm 1.51 in38.4 mm
07:30 PM 38.1°F3.4°C 33.8°F1.0°C 82% 2.1 mph SW3.4 kmh SW 4.3 mph6.9 kmh 29.00 in982.1 mb 0.00 in0.0 mm 0.00 in0.0 mm 1.51 in38.4 mm
07:35 PM 37.9°F3.3°C 33.8°F1.0°C 82% 1.6 mph SW2.6 kmh SW 2.7 mph4.3 kmh 29.00 in982.1 mb 0.00 in0.0 mm 0.00 in0.0 mm 1.51 in38.4 mm
07:40 PM 37.8°F3.2°C 33.8°F1.0°C 82% 1.5 mph WSW2.4 kmh WSW 3.4 mph5.5 kmh 28.94 in980.0 mb 0.00 in0.0 mm 0.00 in0.0 mm 1.51 in38.4 mm
07:45 PM 38.1°F3.4°C 33.8°F1.0°C 82% 1.7 mph WSW2.7 kmh WSW 3.6 mph5.8 kmh 28.94 in980.0 mb 0.00 in0.0 mm 0.00 in0.0 mm 1.51 in38.4 mm
07:50 PM 38.3°F3.5°C 33.8°F1.0°C 82% 1.3 mph WSW2.1 kmh WSW 3.6 mph5.8 kmh 28.94 in980.0 mb 0.00 in0.0 mm 0.00 in0.0 mm 1.51 in38.4 mm
07:55 PM 38.7°F3.7°C 33.8°F1.0°C 82% 1.7 mph SW2.7 kmh SW 3.6 mph5.8 kmh 29.00 in982.1 mb 0.00 in0.0 mm 0.00 in0.0 mm 1.51 in38.4 mm
08:00 PM 38.7°F3.7°C 33.8°F1.0°C 82% 2.4 mph SW3.9 kmh SW 3.6 mph5.8 kmh 29.00 in982.1 mb 0.00 in0.0 mm 0.00 in0.0 mm 1.51 in38.4 mm
08:05 PM 38.7°F3.7°C 33.8°F1.0°C 82% 1.8 mph SW2.9 kmh SW 2.9 mph4.7 kmh 29.00 in982.1 mb 0.00 in0.0 mm 0.00 in0.0 mm 1.51 in38.4 mm
08:10 PM 38.5°F3.6°C 33.8°F1.0°C 82% 0.7 mph SSW1.1 kmh SSW 2.5 mph4.0 kmh 28.97 in981.0 mb 0.00 in0.0 mm 0.00 in0.0 mm 1.51 in38.4 mm
08:15 PM 38.5°F3.6°C 33.8°F1.0°C 82% 0.8 mph SSW1.3 kmh SSW 2.5 mph4.0 kmh 28.97 in981.0 mb 0.00 in0.0 mm 0.00 in0.0 mm 1.51 in38.4 mm
08:20 PM 38.7°F3.7°C 33.8°F1.0°C 82% 1.1 mph SSW1.8 kmh SSW 2.5 mph4.0 kmh 28.97 in981.0 mb 0.00 in0.0 mm 0.00 in0.0 mm 1.51 in38.4 mm
08:25 PM 38.5°F3.6°C 33.8°F1.0°C 82% 1.7 mph SSW2.7 kmh SSW 2.7 mph4.3 kmh 29.00 in982.1 mb 0.00 in0.0 mm 0.00 in0.0 mm 1.51 in38.4 mm
08:30 PM 38.7°F3.7°C 33.8°F1.0°C 82% 1.6 mph SSW2.6 kmh SSW 3.6 mph5.8 kmh 29.00 in982.1 mb 0.00 in0.0 mm 0.00 in0.0 mm 1.51 in38.4 mm
08:35 PM 38.8°F3.8°C 33.8°F1.0°C 82% 1.8 mph SW2.9 kmh SW 4.0 mph6.4 kmh 29.00 in982.1 mb 0.00 in0.0 mm 0.00 in0.0 mm 1.51 in38.4 mm
08:40 PM 38.8°F3.8°C 33.8°F1.0°C 82% 1.4 mph SW2.3 kmh SW 4.0 mph6.4 kmh 29.00 in982.1 mb 0.00 in0.0 mm 0.00 in0.0 mm 1.51 in38.4 mm
08:45 PM 38.5°F3.6°C 33.8°F1.0°C 82% 0.5 mph SW0.8 kmh SW 2.5 mph4.0 kmh 29.00 in982.1 mb 0.00 in0.0 mm 0.00 in0.0 mm 1.51 in38.4 mm
08:50 PM 38.5°F3.6°C 33.8°F1.0°C 82% 1.5 mph SW2.4 kmh SW 3.4 mph5.5 kmh 29.00 in982.1 mb 0.00 in0.0 mm 0.00 in0.0 mm 1.51 in38.4 mm
08:55 PM 38.1°F3.4°C 33.8°F1.0°C 82% 2.6 mph WSW4.2 kmh WSW 3.4 mph5.5 kmh 29.00 in982.1 mb 0.00 in0.0 mm 0.00 in0.0 mm 1.51 in38.4 mm
09:00 PM 38.1°F3.4°C 33.8°F1.0°C 82% 2.7 mph WSW4.3 kmh WSW 3.4 mph5.5 kmh 29.00 in982.1 mb 0.00 in0.0 mm 0.00 in0.0 mm 1.51 in38.4 mm
09:05 PM 38.5°F3.6°C 33.8°F1.0°C 82% 3.1 mph WSW5.0 kmh WSW 7.2 mph11.6 kmh 29.00 in982.1 mb 0.00 in0.0 mm 0.00 in0.0 mm 1.51 in38.4 mm
09:10 PM 38.8°F3.8°C 33.8°F1.0°C 82% 4.0 mph WSW6.4 kmh WSW 7.2 mph11.6 kmh 29.06 in984.1 mb 0.00 in0.0 mm 0.00 in0.0 mm 1.51 in38.4 mm
09:15 PM 38.7°F3.7°C 33.8°F1.0°C 82% 4.3 mph WSW6.9 kmh WSW 6.0 mph9.7 kmh 29.06 in984.1 mb 0.00 in0.0 mm 0.00 in0.0 mm 1.51 in38.4 mm
09:20 PM 38.7°F3.7°C 33.8°F1.0°C 82% 3.4 mph SW5.5 kmh SW 4.7 mph7.6 kmh 29.06 in984.1 mb 0.00 in0.0 mm 0.00 in0.0 mm 1.51 in38.4 mm
09:25 PM 38.7°F3.7°C 33.8°F1.0°C 81% 2.6 mph WSW4.2 kmh WSW 3.8 mph6.1 kmh 29.06 in984.1 mb 0.00 in0.0 mm 0.00 in0.0 mm 1.51 in38.4 mm
09:30 PM 38.7°F3.7°C 33.8°F1.0°C 81% 2.1 mph SW3.4 kmh SW 3.6 mph5.8 kmh 29.06 in984.1 mb 0.00 in0.0 mm 0.00 in0.0 mm 1.51 in38.4 mm
09:35 PM 38.3°F3.5°C 33.8°F1.0°C 81% 2.2 mph SW3.5 kmh SW 3.4 mph5.5 kmh 29.06 in984.1 mb 0.00 in0.0 mm 0.00 in0.0 mm 1.51 in38.4 mm
09:40 PM 38.3°F3.5°C 33.8°F1.0°C 82% 2.2 mph SW3.5 kmh SW 3.6 mph5.8 kmh 29.06 in984.1 mb 0.00 in0.0 mm 0.00 in0.0 mm 1.51 in38.4 mm
09:45 PM 38.3°F3.5°C 33.8°F1.0°C 82% 2.3 mph SW3.7 kmh SW 4.0 mph6.4 kmh 29.06 in984.1 mb 0.00 in0.0 mm 0.00 in0.0 mm 1.51 in38.4 mm
09:50 PM 38.7°F3.7°C 33.8°F1.0°C 82% 3.4 mph WSW5.5 kmh WSW 6.3 mph10.1 kmh 29.06 in984.1 mb 0.00 in0.0 mm 0.00 in0.0 mm 1.51 in38.4 mm
09:55 PM 38.7°F3.7°C 33.8°F1.0°C 82% 5.3 mph WSW8.5 kmh WSW 8.5 mph13.7 kmh 29.06 in984.1 mb 0.00 in0.0 mm 0.00 in0.0 mm 1.51 in38.4 mm
10:00 PM 38.7°F3.7°C 33.8°F1.0°C 82% 5.6 mph WSW9.0 kmh WSW 8.5 mph13.7 kmh 29.06 in984.1 mb 0.00 in0.0 mm 0.00 in0.0 mm 1.51 in38.4 mm
10:05 PM 39.0°F3.9°C 33.8°F1.0°C 82% 5.3 mph WSW8.5 kmh WSW 8.5 mph13.7 kmh 29.06 in984.1 mb 0.00 in0.0 mm 0.00 in0.0 mm 1.51 in38.4 mm
10:10 PM 39.0°F3.9°C 33.8°F1.0°C 82% 5.3 mph WSW8.5 kmh WSW 8.1 mph13.0 kmh 29.06 in984.1 mb 0.00 in0.0 mm 0.00 in0.0 mm 1.51 in38.4 mm
10:15 PM 38.8°F3.8°C 33.8°F1.0°C 82% 4.6 mph WSW7.4 kmh WSW 8.1 mph13.0 kmh 29.06 in984.1 mb 0.00 in0.0 mm 0.00 in0.0 mm 1.51 in38.4 mm
10:20 PM 38.5°F3.6°C 33.8°F1.0°C 82% 3.8 mph WSW6.1 kmh WSW 6.0 mph9.7 kmh 29.06 in984.1 mb 0.00 in0.0 mm 0.00 in0.0 mm 1.51 in38.4 mm
10:25 PM 38.1°F3.4°C 33.8°F1.0°C 82% 3.3 mph WSW5.3 kmh WSW 4.0 mph6.4 kmh 29.06 in984.1 mb 0.00 in0.0 mm 0.00 in0.0 mm 1.51 in38.4 mm
10:30 PM 37.9°F3.3°C 33.8°F1.0°C 83% 3.0 mph SW4.8 kmh SW 3.8 mph6.1 kmh 29.06 in984.1 mb 0.00 in0.0 mm 0.00 in0.0 mm 1.51 in38.4 mm
10:35 PM 37.8°F3.2°C 33.8°F1.0°C 83% 2.3 mph SW3.7 kmh SW 3.8 mph6.1 kmh 29.06 in984.1 mb 0.00 in0.0 mm 0.00 in0.0 mm 1.51 in38.4 mm
10:40 PM 37.6°F3.1°C 33.8°F1.0°C 83% 1.9 mph SW3.1 kmh SW 4.0 mph6.4 kmh 29.06 in984.1 mb 0.00 in0.0 mm 0.00 in0.0 mm 1.51 in38.4 mm
10:45 PM 37.4°F3.0°C 33.8°F1.0°C 83% 1.7 mph SW2.7 kmh SW 4.0 mph6.4 kmh 29.06 in984.1 mb 0.00 in0.0 mm 0.00 in0.0 mm 1.51 in38.4 mm
10:50 PM 37.4°F3.0°C 33.8°F1.0°C 83% 2.0 mph SW3.2 kmh SW 3.4 mph5.5 kmh 29.06 in984.1 mb 0.00 in0.0 mm 0.00 in0.0 mm 1.51 in38.4 mm
10:55 PM 37.0°F2.8°C 33.8°F1.0°C 83% 2.6 mph SSW4.2 kmh SSW 3.8 mph6.1 kmh 29.06 in984.1 mb 0.00 in0.0 mm 0.00 in0.0 mm 1.51 in38.4 mm
11:00 PM 36.9°F2.7°C 32.0°F0.0°C 83% 2.1 mph SSW3.4 kmh SSW 3.8 mph6.1 kmh 29.06 in984.1 mb 0.00 in0.0 mm 0.00 in0.0 mm 1.51 in38.4 mm
11:05 PM 36.9°F2.7°C 32.0°F0.0°C 83% 1.8 mph S2.9 kmh S 4.0 mph6.4 kmh 29.06 in984.1 mb 0.00 in0.0 mm 0.00 in0.0 mm 1.51 in38.4 mm
11:10 PM 36.7°F2.6°C 32.0°F0.0°C 83% 2.3 mph S3.7 kmh S 4.0 mph6.4 kmh 29.00 in982.1 mb 0.00 in0.0 mm 0.00 in0.0 mm 1.51 in38.4 mm
11:15 PM 36.7°F2.6°C 32.0°F0.0°C 83% 2.2 mph S3.5 kmh S 3.8 mph6.1 kmh 29.00 in982.1 mb 0.00 in0.0 mm 0.00 in0.0 mm 1.51 in38.4 mm
11:20 PM 36.3°F2.4°C 32.0°F0.0°C 83% 1.4 mph SSW2.3 kmh SSW 3.6 mph5.8 kmh 29.00 in982.1 mb 0.00 in0.0 mm 0.00 in0.0 mm 1.51 in38.4 mm
11:25 PM 36.3°F2.4°C 32.0°F0.0°C 83% 1.5 mph S2.4 kmh S 5.6 mph9.0 kmh 29.03 in983.1 mb 0.00 in0.0 mm 0.00 in0.0 mm 1.51 in38.4 mm
11:30 PM 36.1°F2.3°C 32.0°F0.0°C 83% 2.8 mph SSW4.5 kmh SSW 5.6 mph9.0 kmh 29.03 in983.1 mb 0.00 in0.0 mm 0.00 in0.0 mm 1.51 in38.4 mm
11:35 PM 36.3°F2.4°C 32.0°F0.0°C 83% 3.3 mph S5.3 kmh S 5.6 mph9.0 kmh 29.03 in983.1 mb 0.00 in0.0 mm 0.00 in0.0 mm 1.51 in38.4 mm
11:40 PM 36.3°F2.4°C 32.0°F0.0°C 83% 3.1 mph SSW5.0 kmh SSW 5.6 mph9.0 kmh 29.03 in983.1 mb 0.00 in0.0 mm 0.00 in0.0 mm 1.51 in38.4 mm
11:45 PM 36.3°F2.4°C 32.0°F0.0°C 83% 3.6 mph SSW5.8 kmh SSW 7.6 mph12.2 kmh 29.03 in983.1 mb 0.00 in0.0 mm 0.00 in0.0 mm 1.51 in38.4 mm
11:50 PM 36.7°F2.6°C 32.0°F0.0°C 83% 3.9 mph SSW6.3 kmh SSW 7.6 mph12.2 kmh 29.03 in983.1 mb 0.00 in0.0 mm 0.00 in0.0 mm 1.51 in38.4 mm
11:55 PM 36.9°F2.7°C 32.0°F0.0°C 83% 4.6 mph SSW7.4 kmh SSW 7.6 mph12.2 kmh 29.03 in983.1 mb 0.00 in0.0 mm 0.00 in0.0 mm 1.51 in38.4 mm